Time;durP1;ratioP1;P1;durP2;ratioP2;P2;SDS_P1;SDS_P2;PMS_P1;PMS_P2;Temp;Humidity;BMP_temperature;BMP_pressure;BME280_temperature;BME280_humidity;BME280_pressure;Samples;Min_cycle;Max_cycle;Signal;HPM_P1;HPM_P2
2023/08/24 00:02:13;;;;;;;6.15;5.75;;;;;;;17.67;81.88;100962.66;6094942;23;20044;-70
2023/08/24 00:04:40;;;;;;;6.30;5.90;;;;;;;17.54;81.88;100949.50;6116559;23;20021;-71
2023/08/24 00:07:07;;;;;;;6.25;5.70;;;;;;;17.65;82.17;100969.88;6117936;23;20099;-71
2023/08/24 00:09:33;;;;;;;6.20;5.80;;;;;;;17.60;83.40;100973.84;6111306;23;20108;-72
2023/08/24 00:12:00;;;;;;;6.28;5.72;;;;;;;17.56;84.13;100991.84;6096877;23;20388;-71
2023/08/24 00:14:26;;;;;;;6.28;5.88;;;;;;;17.05;84.53;100915.28;6118013;23;20029;-71
2023/08/24 00:16:54;;;;;;;6.10;5.78;;;;;;;17.42;85.03;100984.94;6089792;23;20028;-71
2023/08/24 00:19:23;;;;;;;6.80;6.30;;;;;;;17.44;87.15;101035.22;6114953;23;20657;-72
2023/08/24 00:21:50;;;;;;;6.40;5.90;;;;;;;17.00;89.51;100997.84;6115234;23;20074;-72
2023/08/24 00:24:16;;;;;;;6.82;6.18;;;;;;;16.29;91.91;100930.56;6092463;23;20041;-70
2023/08/24 00:26:50;;;;;;;6.20;5.80;;;;;;;16.65;92.66;100990.63;6112841;23;20018;-71
2023/08/24 00:29:17;;;;;;;6.70;6.20;;;;;;;17.09;92.83;101050.16;6114370;23;20029;-71
2023/08/24 00:31:44;;;;;;;7.32;5.72;;;;;;;16.84;92.26;101032.59;6115539;23;20029;-70
2023/08/24 00:34:10;;;;;;;6.40;5.80;;;;;;;17.08;92.24;101045.84;6113187;23;20490;-72
2023/08/24 00:36:37;;;;;;;6.72;6.05;;;;;;;16.59;92.21;100963.75;6091496;23;20040;-72
2023/08/24 00:39:03;;;;;;;6.80;6.20;;;;;;;16.92;92.23;101013.47;6112301;23;20512;-71
2023/08/24 00:41:30;;;;;;;6.45;5.85;;;;;;;17.09;92.53;101020.16;6082761;23;20032;-72
2023/08/24 00:43:57;;;;;;;5.90;5.50;;;;;;;17.12;92.47;101026.09;6116310;23;20104;-71
2023/08/24 00:46:26;;;;;;;6.50;6.00;;;;;;;16.98;92.07;100998.88;6089069;23;20050;-70
2023/08/24 00:48:57;;;;;;;6.18;5.68;;;;;;;16.92;91.72;101003.69;6094827;23;20022;-70
2023/08/24 00:51:24;;;;;;;6.50;6.00;;;;;;;17.09;92.14;101031.59;6112320;23;20045;-70
2023/08/24 00:53:51;;;;;;;5.93;5.53;;;;;;;16.79;91.77;100965.75;6114330;23;20029;-70
2023/08/24 00:56:19;;;;;;;6.63;6.03;;;;;;;17.08;91.33;101011.34;6114617;23;20080;-70
2023/08/24 00:58:47;;;;;;;6.18;5.78;;;;;;;16.56;91.18;100922.44;6090691;23;20840;-70
2023/08/24 01:01:13;;;;;;;6.18;5.78;;;;;;;16.71;91.25;100963.66;6112023;23;20020;-70
2023/08/24 01:03:40;;;;;;;6.47;5.90;;;;;;;16.69;91.24;100957.63;6092018;23;20392;-71
2023/08/24 01:06:06;;;;;;;6.45;5.85;;;;;;;17.02;91.84;101017.13;6087788;23;20022;-70
2023/08/24 01:08:33;;;;;;;5.97;5.57;;;;;;;16.99;92.22;101021.81;6083828;23;20025;-70
2023/08/24 01:11:17;;;;;;;6.35;5.85;;;;;;;16.97;91.97;101016.59;6110439;23;20499;-70
2023/08/24 01:13:54;;;;;;;6.28;5.88;;;;;;;16.58;92.33;100986.75;6092764;23;20871;-70
2023/08/24 01:16:27;;;;;;;6.47;5.88;;;;;;;16.88;92.88;101018.13;6110389;23;20025;-70
2023/08/24 01:18:59;;;;;;;6.10;5.70;;;;;;;16.54;93.92;100987.94;6112725;23;20030;-70
2023/08/24 01:21:27;;;;;;;6.43;6.03;;;;;;;16.87;94.96;101050.06;6111488;23;20077;-70
2023/08/24 01:24:10;;;;;;;6.63;5.93;;;;;;;15.92;94.93;100898.81;6094355;23;20055;-70
2023/08/24 01:26:37;;;;;;;6.60;6.10;;;;;;;16.74;96.46;101066.81;6110581;23;20017;-70
2023/08/24 01:29:04;;;;;;;6.25;5.75;;;;;;;16.37;98.07;101015.63;6112249;23;20027;-70
2023/08/24 01:31:31;;;;;;;6.90;6.30;;;;;;;16.75;97.38;101070.31;6089221;23;20032;-70
2023/08/24 01:33:57;;;;;;;6.20;5.80;;;;;;;16.46;97.52;101011.50;6111430;23;20566;-70
2023/08/24 01:36:25;;;;;;;6.85;6.18;;;;;;;16.81;96.83;101069.03;6106598;23;20017;-71
2023/08/24 01:39:06;;;;;;;6.30;5.90;;;;;;;16.50;97.02;101026.19;6110778;23;20036;-71
2023/08/24 01:41:42;;;;;;;5.93;5.53;;;;;;;16.32;97.86;100999.22;6111036;23;20792;-70
2023/08/24 01:44:13;;;;;;;6.38;5.88;;;;;;;16.46;98.13;101014.97;6113737;23;20289;-70
2023/08/24 01:46:43;;;;;;;8.82;5.60;;;;;;;16.43;98.54;101023.13;6112369;23;20049;-71
2023/08/24 01:49:13;;;;;;;6.57;6.10;;;;;;;16.61;100.00;101081.91;6061414;23;20580;-70
2023/08/24 01:51:42;;;;;;;7.13;6.05;;;;;;;16.60;100.00;101069.63;6112738;23;20077;-72
2023/08/24 01:54:09;;;;;;;6.22;5.78;;;;;;;16.58;100.00;101054.78;6082378;23;20033;-70
2023/08/24 01:56:35;;;;;;;6.43;5.97;;;;;;;16.34;100.00;101024.66;6112201;23;20024;-72
2023/08/24 01:59:01;;;;;;;6.72;6.15;;;;;;;16.52;100.00;101037.53;6111699;23;20061;-71
2023/08/24 02:01:28;;;;;;;6.50;6.00;;;;;;;16.46;99.31;101017.63;6110875;23;20022;-71
2023/08/24 02:03:55;;;;;;;5.97;5.65;;;;;;;16.25;99.90;100993.50;6113482;23;20508;-71
2023/08/24 02:06:22;;;;;;;6.70;6.18;;;;;;;16.30;100.00;101039.06;6093364;23;20033;-71
2023/08/24 02:08:48;;;;;;;7.30;6.63;;;;;;;16.41;100.00;101077.19;6111898;23;20670;-71
2023/08/24 02:11:14;;;;;;;6.22;5.82;;;;;;;16.46;100.00;101070.59;6082695;23;20021;-70
2023/08/24 02:13:41;;;;;;;6.43;5.93;;;;;;;16.50;100.00;101081.84;6112190;23;20045;-71
2023/08/24 02:16:08;;;;;;;6.90;6.18;;;;;;;16.08;100.00;101021.19;6084853;23;20018;-71
2023/08/24 02:18:35;;;;;;;8.27;5.90;;;;;;;16.51;100.00;101083.53;6090320;23;20022;-71
2023/08/24 02:21:11;;;;;;;6.13;5.70;;;;;;;16.14;100.00;101011.97;6110393;23;20107;-71
2023/08/24 02:23:38;;;;;;;6.43;6.03;;;;;;;16.58;100.00;101068.88;6088885;23;20022;-70
2023/08/24 02:26:05;;;;;;;5.70;5.40;;;;;;;16.40;100.00;101022.50;6120403;23;20043;-71
2023/08/24 02:28:33;;;;;;;6.10;5.70;;;;;;;16.53;100.00;101045.34;6087771;23;20032;-71
2023/08/24 02:31:03;;;;;;;6.32;5.72;;;;;;;15.66;100.00;100895.34;6118104;23;20014;-70
2023/08/24 02:33:30;;;;;;;6.82;6.30;;;;;;;16.32;100.00;101009.81;6082624;23;20045;-70
2023/08/24 02:35:59;;;;;;;6.63;6.20;;;;;;;16.62;100.00;101067.72;6118865;23;20654;-72
2023/08/24 02:38:25;;;;;;;6.40;6.00;;;;;;;16.61;100.00;101065.16;6092027;23;20026;-70
2023/08/24 02:41:06;;;;;;;6.82;6.22;;;;;;;16.61;100.00;101079.25;6114122;23;20500;-71
2023/08/24 02:43:33;;;;;;;6.40;5.90;;;;;;;16.02;100.00;100981.06;6112224;23;20092;-71
2023/08/24 02:46:05;;;;;;;6.60;6.10;;;;;;;16.67;100.00;101084.13;6115777;23;20068;-72
2023/08/24 02:48:32;;;;;;;7.05;6.38;;;;;;;16.67;100.00;101056.78;6115499;23;20021;-70
2023/08/24 02:51:01;;;;;;;6.50;6.00;;;;;;;16.73;100.00;101078.38;6091393;23;20033;-70
2023/08/24 02:53:29;;;;;;;8.13;6.68;;;;;;;16.67;100.00;101062.91;6115859;23;20045;-71
2023/08/24 02:55:56;;;;;;;6.85;6.22;;;;;;;16.69;100.00;101054.84;6095414;23;20041;-71
2023/08/24 02:58:22;;;;;;;6.75;6.25;;;;;;;16.81;100.00;101054.00;6113125;23;20021;-71
2023/08/24 03:00:49;;;;;;;6.18;5.78;;;;;;;16.95;100.00;101056.47;6116960;23;20956;-71
2023/08/24 03:03:15;;;;;;;6.35;5.95;;;;;;;16.93;100.00;101042.50;6115722;23;20022;-70
2023/08/24 03:05:59;;;;;;;6.15;5.75;;;;;;;16.66;100.00;101008.22;6115964;23;20080;-71
2023/08/24 03:08:28;;;;;;;6.22;5.80;;;;;;;16.82;100.00;101029.19;6110774;23;20049;-72
2023/08/24 03:10:55;;;;;;;6.47;5.97;;;;;;;17.03;100.00;101076.28;6115364;23;20079;-72
2023/08/24 03:13:22;;;;;;;6.88;6.32;;;;;;;17.09;100.00;101070.53;6089023;23;20697;-70
2023/08/24 03:15:49;;;;;;;6.78;6.18;;;;;;;17.17;100.00;101094.69;6115703;23;20044;-70
2023/08/24 03:18:16;;;;;;;6.10;5.70;;;;;;;16.89;100.00;101030.41;6116976;23;20025;-70
2023/08/24 03:20:48;;;;;;;6.55;6.00;;;;;;;17.08;100.00;101047.66;6116261;23;20436;-70
2023/08/24 03:23:16;;;;;;;6.80;6.20;;;;;;;17.03;100.00;101040.00;6086096;23;20020;-70
2023/08/24 03:25:43;;;;;;;6.65;6.10;;;;;;;17.57;100.00;101078.44;6113233;23;20029;-70
2023/08/24 03:28:13;;;;;;;6.20;5.80;;;;;;;17.09;99.84;101004.25;6116906;23;20021;-70
2023/08/24 03:30:51;;;;;;;6.55;5.78;;;;;;;17.48;100.00;101074.69;6113252;23;20021;-71
2023/08/24 03:33:19;;;;;;;6.70;6.30;;;;;;;17.40;100.00;101074.44;6114015;23;20106;-71
2023/08/24 03:35:45;;;;;;;6.00;5.50;;;;;;;17.38;99.58;101067.50;6116123;23;20025;-70
2023/08/24 03:38:12;;;;;;;6.07;5.70;;;;;;;16.75;99.34;100959.00;6129740;23;20089;-70
2023/08/24 03:40:38;;;;;;;6.47;5.97;;;;;;;17.72;99.19;101113.59;6094527;23;20045;-70
2023/08/24 03:43:05;;;;;;;6.03;5.63;;;;;;;16.94;98.97;100990.34;6116625;23;20057;-71
2023/08/24 03:45:31;;;;;;;8.65;6.38;;;;;;;17.72;100.00;101125.06;6112941;23;20017;-71
2023/08/24 03:47:58;;;;;;;6.18;5.72;;;;;;;17.41;100.00;101104.44;6114766;23;20037;-71
2023/08/24 03:50:25;;;;;;;7.15;6.60;;;;;;;17.67;100.00;101137.84;6110378;23;20573;-70
2023/08/24 03:52:54;;;;;;;6.85;6.28;;;;;;;17.39;100.00;101117.81;6087357;23;20029;-70
2023/08/24 03:55:21;;;;;;;7.13;6.60;;;;;;;17.14;100.00;101101.06;6107601;23;20319;-71
2023/08/24 03:57:48;;;;;;;6.13;5.72;;;;;;;17.54;100.00;101174.22;6111274;23;20023;-70
2023/08/24 04:00:15;;;;;;;6.85;6.35;;;;;;;16.75;100.00;101044.66;6115129;23;20026;-71
2023/08/24 04:02:41;;;;;;;6.40;5.90;;;;;;;17.51;100.00;101167.31;6113386;23;20033;-70
2023/08/24 04:05:08;;;;;;;6.45;5.95;;;;;;;17.08;100.00;101104.19;6113200;23;20029;-70
2023/08/24 04:07:39;;;;;;;10.30;9.55;;;;;;;17.20;100.00;101128.94;6102322;23;20462;-70
2023/08/24 04:10:06;;;;;;;6.40;5.90;;;;;;;17.12;100.00;101084.44;5983318;23;20016;-72
2023/08/24 04:12:35;;;;;;;7.20;6.60;;;;;;;17.51;100.00;101155.88;6116671;23;20039;-72
2023/08/24 04:15:02;;;;;;;6.97;6.43;;;;;;;17.51;100.00;101155.88;6113135;23;20041;-73
2023/08/24 04:17:30;;;;;;;8.25;6.80;;;;;;;17.58;100.00;101165.09;6108204;23;20076;-73
2023/08/24 04:19:57;;;;;;;6.63;6.13;;;;;;;17.64;100.00;101169.94;6093342;23;20097;-73
2023/08/24 04:22:23;;;;;;;6.50;6.00;;;;;;;17.61;100.00;101161.34;6111336;23;20045;-73
2023/08/24 04:24:50;;;;;;;6.85;6.30;;;;;;;16.42;100.00;100994.97;6114884;23;20769;-73
2023/08/24 04:27:16;;;;;;;6.78;6.28;;;;;;;17.04;100.00;101100.06;6111584;23;20031;-73
2023/08/24 04:29:43;;;;;;;7.65;6.97;;;;;;;17.35;100.00;101166.75;6083897;23;20040;-72
2023/08/24 04:32:09;;;;;;;7.60;6.80;;;;;;;17.32;100.00;101164.34;6116028;23;20005;-73
2023/08/24 04:34:36;;;;;;;7.35;6.75;;;;;;;17.19;100.00;101129.06;6114723;23;20095;-72
2023/08/24 04:37:02;;;;;;;7.47;6.88;;;;;;;17.29;100.00;101148.66;6088058;23;20041;-72
2023/08/24 04:39:30;;;;;;;7.40;6.68;;;;;;;17.00;100.00;101100.38;6115870;23;20628;-73
2023/08/24 04:41:57;;;;;;;9.88;6.65;;;;;;;16.73;100.00;101094.28;6088137;23;20029;-73
2023/08/24 04:44:24;;;;;;;7.68;6.97;;;;;;;17.33;100.00;101155.41;6114369;23;20587;-73
2023/08/24 04:46:50;;;;;;;7.10;6.50;;;;;;;16.34;100.00;100995.50;6113396;23;20022;-72
2023/08/24 04:49:17;;;;;;;7.40;6.80;;;;;;;17.24;100.00;101150.78;6112619;23;20045;-73
2023/08/24 04:51:44;;;;;;;7.18;6.57;;;;;;;17.11;100.00;101098.63;6062734;23;20947;-73
2023/08/24 04:54:10;;;;;;;8.60;6.80;;;;;;;17.64;100.00;101139.88;6114826;23;20740;-73
2023/08/24 04:56:36;;;;;;;8.25;7.40;;;;;;;17.71;100.00;101135.81;6111501;23;20085;-73
2023/08/24 04:59:03;;;;;;;8.05;7.35;;;;;;;17.71;100.00;101139.28;6114906;23;20025;-73
2023/08/24 05:01:31;;;;;;;8.63;7.38;;;;;;;17.79;100.00;101154.66;6080604;23;20093;-73
2023/08/24 05:03:58;;;;;;;8.73;7.25;;;;;;;17.89;100.00;101146.88;6113073;23;20086;-73
2023/08/24 05:06:24;;;;;;;8.07;7.30;;;;;;;17.78;100.00;101115.81;6062848;23;20066;-73
2023/08/24 05:08:51;;;;;;;8.07;7.38;;;;;;;17.79;100.00;101140.53;6116905;23;20095;-73
2023/08/24 05:11:22;;;;;;;9.13;7.40;;;;;;;17.83;100.00;101148.19;6087866;23;20073;-73
2023/08/24 05:13:49;;;;;;;8.18;6.88;;;;;;;17.87;100.00;101154.94;6115763;23;20112;-73
2023/08/24 05:16:16;;;;;;;7.78;7.13;;;;;;;17.88;100.00;101153.13;6111408;23;20359;-72
2023/08/24 05:18:42;;;;;;;8.85;7.78;;;;;;;17.77;100.00;101134.50;6113363;23;20021;-72
2023/08/24 05:21:09;;;;;;;8.75;7.95;;;;;;;17.87;100.00;101146.97;6110059;23;20017;-72
2023/08/24 05:23:35;;;;;;;9.07;8.30;;;;;;;17.98;100.00;101150.63;6114686;23;20017;-72
2023/08/24 05:26:02;;;;;;;8.00;7.30;;;;;;;17.49;100.00;101076.38;6114330;23;20096;-72
2023/08/24 05:28:30;;;;;;;8.57;7.82;;;;;;;17.79;100.00;101148.50;6081516;23;20093;-72
2023/08/24 05:30:57;;;;;;;8.70;7.63;;;;;;;17.79;100.00;101136.06;6087854;23;20611;-72
2023/08/24 05:33:25;;;;;;;10.23;7.43;;;;;;;17.91;100.00;101148.44;6110913;23;20868;-72
2023/08/24 05:35:52;;;;;;;18.15;7.20;;;;;;;18.04;100.00;101147.50;6114620;23;20016;-72
2023/08/24 05:38:19;;;;;;;7.72;7.05;;;;;;;17.89;100.00;101118.50;6116341;23;20018;-72
2023/08/24 05:40:49;;;;;;;11.38;7.72;;;;;;;17.80;100.00;101111.22;6112931;23;20022;-72
2023/08/24 05:43:16;;;;;;;8.00;7.20;;;;;;;18.07;100.00;101139.31;6092512;23;20228;-72
2023/08/24 05:45:44;;;;;;;7.95;7.35;;;;;;;17.96;100.00;101099.44;6108805;23;20048;-73
2023/08/24 05:48:11;;;;;;;8.65;7.75;;;;;;;18.11;100.00;101132.78;6114261;23;20033;-72
2023/08/24 05:50:46;;;;;;;9.35;7.57;;;;;;;18.02;100.00;101107.81;6082349;23;20054;-72
2023/08/24 05:53:13;;;;;;;8.32;7.28;;;;;;;18.39;100.00;101122.69;6091746;23;20045;-72
2023/08/24 05:55:39;;;;;;;8.23;7.43;;;;;;;18.12;100.00;101116.75;6092153;23;20033;-72
2023/08/24 05:58:06;;;;;;;8.30;7.55;;;;;;;18.13;100.00;101122.91;6118582;23;20357;-73
2023/08/24 06:00:33;;;;;;;7.97;7.28;;;;;;;18.11;100.00;101116.84;6117439;23;20479;-71
2023/08/24 06:02:59;;;;;;;7.82;7.20;;;;;;;17.48;100.00;100968.53;6119990;23;20006;-73
2023/08/24 06:05:26;;;;;;;8.02;7.35;;;;;;;17.98;100.00;101028.47;6119567;23;20024;-72
2023/08/24 06:07:53;;;;;;;9.95;7.72;;;;;;;18.46;100.00;101081.34;6117329;23;20029;-74
2023/08/24 06:10:19;;;;;;;8.07;7.25;;;;;;;18.37;100.00;101026.31;6118718;23;20089;-73
2023/08/24 06:12:46;;;;;;;8.10;7.40;;;;;;;18.92;100.00;101075.91;6121401;23;20021;-72
2023/08/24 06:15:13;;;;;;;7.78;7.28;;;;;;;18.99;100.00;101064.75;6113793;23;20104;-72
2023/08/24 06:17:40;;;;;;;8.15;7.45;;;;;;;18.65;100.00;101028.41;6120132;23;20090;-72
2023/08/24 06:20:10;;;;;;;8.15;7.40;;;;;;;18.60;100.00;101057.19;6118946;23;20127;-73
2023/08/24 06:22:37;;;;;;;12.73;7.90;;;;;;;18.49;100.00;101073.16;6089668;23;20029;-73
2023/08/24 06:25:05;;;;;;;9.25;7.75;;;;;;;17.66;100.00;100876.03;6114982;23;20033;-72
2023/08/24 06:27:31;;;;;;;8.23;7.53;;;;;;;18.86;100.00;101055.13;6086341;23;20091;-73
2023/08/24 06:29:58;;;;;;;8.35;7.55;;;;;;;19.23;100.00;101064.53;6114020;23;20098;-73
2023/08/24 06:32:24;;;;;;;7.97;7.38;;;;;;;19.24;100.00;101031.63;6087412;23;20032;-73
2023/08/24 06:34:51;;;;;;;7.95;7.35;;;;;;;19.61;100.00;101052.50;6116292;23;20030;-73
2023/08/24 06:37:17;;;;;;;8.18;7.50;;;;;;;19.76;100.00;101021.91;6116020;23;20049;-73
2023/08/24 06:39:44;;;;;;;13.30;7.63;;;;;;;19.10;100.00;100900.63;6089271;23;20032;-72
2023/08/24 06:42:12;;;;;;;8.30;7.55;;;;;;;19.56;100.00;100948.22;6114455;23;20464;-73
2023/08/24 06:44:39;;;;;;;8.07;7.30;;;;;;;19.47;100.00;100920.56;6114283;23;20524;-72
2023/08/24 06:47:05;;;;;;;7.50;6.90;;;;;;;20.04;100.00;100995.56;6082486;23;20014;-73
2023/08/24 06:49:32;;;;;;;8.20;7.35;;;;;;;20.20;100.00;100984.38;6085325;23;20027;-73
2023/08/24 06:51:58;;;;;;;8.95;8.18;;;;;;;20.30;100.00;100962.09;6061676;23;20030;-72
2023/08/24 06:54:24;;;;;;;9.88;8.23;;;;;;;20.52;100.00;100958.34;6096602;23;20028;-72
2023/08/24 06:56:53;;;;;;;9.05;7.35;;;;;;;20.55;100.00;100937.72;6095910;23;20088;-72
2023/08/24 06:59:19;;;;;;;8.25;7.55;;;;;;;20.52;100.00;100925.53;6121089;23;20034;-72
2023/08/24 07:01:47;;;;;;;8.10;7.30;;;;;;;20.44;100.00;100888.06;6118693;23;20025;-73
2023/08/24 07:04:13;;;;;;;7.55;7.00;;;;;;;20.15;100.00;100838.25;6086110;23;20033;-73
2023/08/24 07:06:42;;;;;;;8.20;7.50;;;;;;;20.39;100.00;100851.16;6087988;23;20033;-72
2023/08/24 07:09:08;;;;;;;8.50;7.60;;;;;;;20.73;100.00;100864.09;6113436;23;20456;-74
2023/08/24 07:11:35;;;;;;;7.88;7.18;;;;;;;20.84;100.00;100845.25;6117422;23;20606;-73
2023/08/24 07:14:01;;;;;;;7.25;6.70;;;;;;;20.96;98.94;100823.75;6112171;23;20052;-73
2023/08/24 07:16:28;;;;;;;7.68;7.10;;;;;;;21.24;96.75;100844.16;6089608;23;20041;-72
2023/08/24 07:18:54;;;;;;;7.60;6.95;;;;;;;21.38;96.19;100837.50;6111720;23;20142;-72
2023/08/24 07:21:23;;;;;;;7.80;7.20;;;;;;;21.29;96.11;100801.03;6116245;23;20105;-73
2023/08/24 07:23:49;;;;;;;7.80;7.18;;;;;;;21.30;92.81;100749.31;6116676;23;20108;-73
2023/08/24 07:26:15;;;;;;;7.13;6.63;;;;;;;21.30;93.44;100738.63;6116433;23;20049;-74
2023/08/24 07:28:42;;;;;;;7.63;6.90;;;;;;;21.59;91.77;100769.69;6105569;23;20080;-73
2023/08/24 07:31:13;;;;;;;7.60;7.00;;;;;;;21.87;92.82;100799.88;6113964;23;20092;-72
2023/08/24 07:33:40;;;;;;;7.88;7.28;;;;;;;22.06;90.17;100767.66;6112606;23;20111;-73
2023/08/24 07:36:07;;;;;;;7.25;6.60;;;;;;;22.23;87.13;100715.19;6115974;23;20032;-74
2023/08/24 07:38:34;;;;;;;7.45;6.93;;;;;;;22.07;86.55;100689.19;6111825;23;20052;-70
2023/08/24 07:41:01;;;;;;;6.97;6.55;;;;;;;22.32;86.28;100709.94;6087883;23;20024;-72
2023/08/24 07:43:27;;;;;;;8.10;7.40;;;;;;;22.33;85.00;100683.06;6107817;23;20542;-72
2023/08/24 07:45:54;;;;;;;7.15;6.60;;;;;;;22.61;83.98;100682.84;6110662;23;20024;-73
2023/08/24 07:48:21;;;;;;;7.28;6.68;;;;;;;22.77;82.23;100661.56;6115812;23;20010;-73
2023/08/24 07:50:47;;;;;;;7.20;6.60;;;;;;;22.86;79.07;100598.19;6090006;23;20093;-72
2023/08/24 07:53:14;;;;;;;7.18;6.50;;;;;;;23.05;78.45;100587.25;6116621;23;20031;-73
2023/08/24 07:55:42;;;;;;;7.00;6.50;;;;;;;22.92;75.92;100511.09;6113494;23;20025;-72
2023/08/24 07:58:09;;;;;;;7.47;6.97;;;;;;;23.19;76.55;100569.69;6114777;23;20037;-73
2023/08/24 08:00:35;;;;;;;7.18;6.68;;;;;;;23.29;75.19;100545.41;6113620;23;20019;-73
2023/08/24 08:03:01;;;;;;;6.97;6.55;;;;;;;23.39;73.04;100526.50;6112311;23;20036;-73
2023/08/24 08:05:28;;;;;;;7.47;6.90;;;;;;;23.51;73.08;100546.59;6116216;23;20021;-73
2023/08/24 08:07:55;;;;;;;7.47;6.72;;;;;;;22.90;70.89;100364.06;6114884;23;20323;-73
2023/08/24 08:10:21;;;;;;;7.18;6.65;;;;;;;23.55;71.40;100488.16;6110814;23;20021;-73
2023/08/24 08:12:48;;;;;;;7.30;6.63;;;;;;;23.82;71.12;100538.72;6112851;23;20033;-74
2023/08/24 08:15:14;;;;;;;7.25;6.75;;;;;;;23.95;71.59;100548.91;6111357;23;20554;-73
2023/08/24 08:17:42;;;;;;;7.28;6.68;;;;;;;24.08;70.10;100524.25;6114649;23;20025;-73
2023/08/24 08:20:09;;;;;;;7.10;6.50;;;;;;;24.16;70.30;100561.78;6112583;23;20063;-74
2023/08/24 08:22:38;;;;;;;7.43;6.93;;;;;;;24.07;68.35;100453.72;6087806;23;20085;-74
2023/08/24 08:25:08;;;;;;;7.20;6.57;;;;;;;23.88;66.69;100358.47;6109073;23;20075;-71
2023/08/24 08:27:35;;;;;;;9.07;6.75;;;;;;;24.21;66.94;100398.50;6112700;23;20037;-73
2023/08/24 08:30:04;;;;;;;7.28;6.78;;;;;;;24.68;66.10;100436.97;6088130;23;20013;-73
2023/08/24 08:32:31;;;;;;;7.35;6.82;;;;;;;25.11;65.79;100464.16;6112401;23;20036;-74
2023/08/24 08:34:59;;;;;;;7.47;6.88;;;;;;;25.08;64.71;100422.38;6112127;23;20149;-72
2023/08/24 08:37:27;;;;;;;7.03;6.57;;;;;;;25.36;62.18;100353.81;6115067;23;20117;-73
2023/08/24 08:39:53;;;;;;;7.65;7.05;;;;;;;25.69;62.42;100429.53;6112774;23;20097;-72
2023/08/24 08:42:20;;;;;;;7.25;6.75;;;;;;;25.85;61.97;100440.06;6117978;23;20021;-72
2023/08/24 08:44:46;;;;;;;7.57;6.65;;;;;;;25.79;61.15;100403.19;6108833;23;20104;-73
2023/08/24 08:47:13;;;;;;;7.22;6.72;;;;;;;25.68;60.10;100361.50;6085638;23;20093;-73
2023/08/24 08:49:42;;;;;;;6.97;6.45;;;;;;;26.05;61.30;100442.22;6110122;23;20092;-72
2023/08/24 08:52:09;;;;;;;7.28;6.68;;;;;;;25.95;60.91;100428.25;6114498;23;20022;-72
2023/08/24 08:54:36;;;;;;;7.40;6.70;;;;;;;26.06;59.46;100387.44;6111477;23;20050;-72
2023/08/24 08:57:03;;;;;;;7.47;6.75;;;;;;;26.01;59.45;100379.91;6113396;23;20028;-73
2023/08/24 08:59:30;;;;;;;6.97;6.47;;;;;;;26.08;60.37;100439.19;6112337;23;20041;-73
2023/08/24 09:01:58;;;;;;;7.32;6.72;;;;;;;25.80;60.51;100402.19;6111070;23;20033;-72
2023/08/24 09:04:24;;;;;;;9.13;7.30;;;;;;;26.33;60.84;100469.25;6115778;23;20056;-72
2023/08/24 09:06:51;;;;;;;7.50;6.70;;;;;;;26.26;58.89;100384.97;6086517;23;20193;-72
2023/08/24 09:09:18;;;;;;;7.18;6.68;;;;;;;26.42;58.68;100367.72;6112038;23;20056;-71
2023/08/24 09:11:47;;;;;;;7.63;7.13;;;;;;;26.42;58.22;100354.25;6079297;23;20067;-72
2023/08/24 09:14:14;;;;;;;7.50;6.90;;;;;;;26.42;58.25;100335.44;6087963;23;20037;-72
2023/08/24 09:16:41;;;;;;;7.53;6.93;;;;;;;25.97;58.29;100284.50;6109152;23;20041;-70
2023/08/24 09:19:11;;;;;;;6.55;6.15;;;;;;;26.15;59.13;100364.75;6088445;23;20032;-71
2023/08/24 09:21:39;;;;;;;6.90;6.40;;;;;;;25.94;59.03;100301.03;6114066;23;20016;-72
2023/08/24 09:24:06;;;;;;;7.15;6.47;;;;;;;26.20;58.74;100338.13;6113481;23;20017;-72
2023/08/24 09:26:42;;;;;;;7.38;6.78;;;;;;;25.92;58.81;100276.19;6107726;23;20049;-72
2023/08/24 09:29:14;;;;;;;7.03;6.50;;;;;;;26.34;57.74;100308.66;6108345;23;20033;-73
2023/08/24 09:31:43;;;;;;;6.85;6.35;;;;;;;26.46;58.41;100342.09;6112039;23;20080;-73
2023/08/24 09:34:11;;;;;;;6.93;6.43;;;;;;;26.18;57.60;100247.88;6090697;23;20046;-72
2023/08/24 09:36:39;;;;;;;6.80;6.40;;;;;;;26.45;56.14;100214.78;6091361;23;20089;-73
2023/08/24 09:39:06;;;;;;;6.78;6.28;;;;;;;26.10;56.61;100208.53;6082535;23;20095;-74
2023/08/24 09:42:00;;;;;;;7.47;6.85;;;;;;;26.71;56.86;100312.94;6112277;23;20033;-73
2023/08/24 09:44:28;;;;;;;7.15;6.65;;;;;;;26.92;55.91;100298.63;6114138;23;20485;-73
2023/08/24 09:46:54;;;;;;;7.20;6.70;;;;;;;26.87;56.28;100330.69;6115578;23;20100;-73
2023/08/24 09:49:21;;;;;;;7.55;6.80;;;;;;;27.14;56.18;100355.09;6115873;23;20029;-74
2023/08/24 09:51:48;;;;;;;8.15;6.97;;;;;;;27.34;55.01;100329.13;6116350;23;20029;-73
2023/08/24 09:54:16;;;;;;;7.10;6.65;;;;;;;27.26;54.86;100310.44;6068262;23;20033;-73
2023/08/24 09:56:44;;;;;;;7.32;6.80;;;;;;;27.21;54.41;100294.84;6118073;23;20025;-74
2023/08/24 09:59:13;;;;;;;7.32;6.68;;;;;;;27.43;54.42;100362.16;6090643;23;20116;-74
2023/08/24 10:01:50;;;;;;;7.18;6.68;;;;;;;27.61;53.83;100367.84;6114042;23;20063;-74
2023/08/24 10:04:25;;;;;;;6.40;6.00;;;;;;;27.88;54.08;100394.13;6087465;23;20120;-73
2023/08/24 10:07:02;;;;;;;6.95;6.55;;;;;;;27.74;52.55;100294.25;6117285;23;20031;-72
2023/08/24 10:09:39;;;;;;;7.10;6.60;;;;;;;27.99;52.84;100364.72;6091010;23;20026;-72
2023/08/24 10:12:07;;;;;;;7.22;6.60;;;;;;;27.83;52.54;100327.28;6117957;23;20081;-72
2023/08/24 10:14:44;;;;;;;7.50;6.85;;;;;;;27.92;52.73;100352.22;6115032;23;20021;-72
2023/08/24 10:17:11;;;;;;;7.03;6.47;;;;;;;27.41;53.39;100304.94;6113642;23;20017;-71
2023/08/24 10:19:42;;;;;;;7.28;6.68;;;;;;;27.51;54.11;100345.00;6112449;23;20571;-72
2023/08/24 10:22:09;;;;;;;6.90;6.50;;;;;;;28.10;52.05;100351.66;6116908;23;20053;-73
2023/08/24 10:24:36;;;;;;;7.13;6.65;;;;;;;28.04;52.86;100396.47;6127108;23;20029;-72
2023/08/24 10:27:03;;;;;;;7.40;6.68;;;;;;;27.64;52.00;100312.69;6117890;23;20017;-73
2023/08/24 10:29:30;;;;;;;7.20;6.55;;;;;;;27.85;52.45;100363.78;6114219;23;20033;-71
2023/08/24 10:31:57;;;;;;;7.22;6.82;;;;;;;28.36;52.24;100418.34;6086328;23;20811;-72
2023/08/24 10:34:23;;;;;;;7.00;6.60;;;;;;;28.33;50.46;100343.22;6092744;23;20080;-74
2023/08/24 10:36:51;;;;;;;7.32;6.82;;;;;;;28.38;50.83;100371.22;6115591;23;20022;-71
2023/08/24 10:39:20;;;;;;;7.03;6.40;;;;;;;28.53;51.88;100459.34;6111822;23;20445;-74
2023/08/24 10:41:53;;;;;;;7.13;6.72;;;;;;;28.72;51.36;100484.72;6088597;23;20029;-74
2023/08/24 10:44:36;;;;;;;7.70;7.00;;;;;;;28.55;50.52;100370.88;6090793;23;20059;-74
2023/08/24 10:47:19;;;;;;;7.05;6.55;;;;;;;28.74;50.08;100413.25;6111825;23;20572;-72
2023/08/24 10:49:55;;;;;;;7.13;6.63;;;;;;;29.03;49.19;100408.50;6117108;23;20016;-74
2023/08/24 10:52:27;;;;;;;7.75;6.97;;;;;;;28.49;49.92;100326.59;6080392;23;20089;-72
2023/08/24 10:54:54;;;;;;;7.15;6.68;;;;;;;28.69;49.86;100353.66;6113548;23;20039;-70
2023/08/24 10:57:23;;;;;;;6.97;6.57;;;;;;;29.17;49.73;100399.38;6115497;23;20041;-72
2023/08/24 11:00:07;;;;;;;8.25;6.60;;;;;;;29.24;48.88;100372.31;6113663;23;20018;-73
2023/08/24 11:02:50;;;;;;;7.05;6.60;;;;;;;28.90;48.70;100313.94;6115665;23;20029;-71
2023/08/24 11:05:28;;;;;;;6.75;6.35;;;;;;;29.46;49.69;100426.97;6112521;23;20017;-72
2023/08/24 11:08:03;;;;;;;7.45;6.85;;;;;;;29.48;49.27;100388.91;6115521;23;20089;-72
2023/08/24 11:10:42;;;;;;;6.78;6.32;;;;;;;29.59;48.16;100353.09;6068310;23;20017;-72
2023/08/24 11:13:14;;;;;;;7.57;7.07;;;;;;;29.22;48.46;100337.38;6091227;23;20553;-73
2023/08/24 11:15:40;;;;;;;6.97;6.38;;;;;;;29.00;49.38;100377.31;6089108;23;20467;-73
2023/08/24 11:18:24;;;;;;;6.93;6.43;;;;;;;29.10;49.53;100365.25;6114228;23;20041;-73
2023/08/24 11:20:53;;;;;;;7.18;6.57;;;;;;;29.20;48.72;100373.78;6112908;23;20025;-71
2023/08/24 11:23:20;;;;;;;7.25;6.30;;;;;;;29.19;48.92;100404.56;6083087;23;20503;-73
2023/08/24 11:25:49;;;;;;;7.20;6.50;;;;;;;29.15;49.48;100412.25;6119477;23;20033;-74
2023/08/24 11:28:20;;;;;;;7.07;6.30;;;;;;;28.99;50.11;100423.47;6114639;23;20041;-71